Time;durP1;ratioP1;P1;durP2;ratioP2;P2;SDS_P1;SDS_P2;PMS_P1;PMS_P2;Temp;Humidity;BMP_temperature;BMP_pressure;BME280_temperature;BME280_humidity;BME280_pressure;Samples;Min_cycle;Max_cycle;Signal;HPM_P1;HPM_P2
2021/07/23 00:00:17;;;;;;;19.00;17.73;;;19.10;99.90;;;;;;5093930;28;20438;-66
2021/07/23 00:02:43;;;;;;;19.60;18.40;;;19.00;99.90;;;;;;5094087;28;20446;-66
2021/07/23 00:05:11;;;;;;;18.47;17.30;;;19.10;99.90;;;;;;5094356;28;20442;-66
2021/07/23 00:07:38;;;;;;;18.80;17.80;;;19.00;99.90;;;;;;5094276;28;20427;-66
2021/07/23 00:10:05;;;;;;;19.40;18.40;;;18.90;99.90;;;;;;5093863;28;20434;-67
2021/07/23 00:12:33;;;;;;;19.10;18.10;;;19.00;99.90;;;;;;5073701;28;20439;-66
2021/07/23 00:15:00;;;;;;;18.80;17.80;;;19.00;99.90;;;;;;5073894;28;20443;-66
2021/07/23 00:17:27;;;;;;;19.80;18.70;;;19.00;99.90;;;;;;5073637;28;20969;-67
2021/07/23 00:19:53;;;;;;;19.83;18.70;;;18.90;99.90;;;;;;5072875;28;20447;-66
2021/07/23 00:22:20;;;;;;;18.03;17.13;;;18.70;99.90;;;;;;5092570;28;20473;-67
2021/07/23 00:24:47;;;;;;;18.20;17.30;;;18.70;99.90;;;;;;5093513;28;20442;-66
2021/07/23 00:27:15;;;;;;;20.03;18.73;;;18.60;99.90;;;;;;5093849;28;20474;-66
2021/07/23 00:29:43;;;;;;;19.50;18.47;;;18.60;99.90;;;;;;5093761;28;20446;-67
2021/07/23 00:32:09;;;;;;;19.63;18.53;;;18.50;99.90;;;;;;5093211;28;20445;-66
2021/07/23 00:34:36;;;;;;;18.47;17.47;;;18.50;99.90;;;;;;5093732;28;20438;-66
2021/07/23 00:37:03;;;;;;;21.20;19.87;;;18.50;99.90;;;;;;5093513;28;20493;-66
2021/07/23 00:39:30;;;;;;;20.50;19.07;;;18.60;99.90;;;;;;5093642;28;20442;-67
2021/07/23 00:41:57;;;;;;;18.80;17.77;;;18.60;99.90;;;;;;5093338;28;20446;-66
2021/07/23 00:44:23;;;;;;;19.23;18.13;;;18.70;99.90;;;;;;5093621;28;20451;-66
2021/07/23 00:46:51;;;;;;;19.03;17.83;;;18.60;99.90;;;;;;5093461;28;20461;-66
2021/07/23 00:49:18;;;;;;;19.20;18.07;;;18.70;99.90;;;;;;5093062;28;20454;-66
2021/07/23 00:51:45;;;;;;;18.47;17.37;;;18.70;99.90;;;;;;5093272;28;20451;-66
2021/07/23 00:54:12;;;;;;;20.50;19.17;;;18.60;99.90;;;;;;5093158;28;20447;-66
2021/07/23 00:56:39;;;;;;;19.00;18.10;;;18.60;99.90;;;;;;5093255;28;20514;-66
2021/07/23 00:59:06;;;;;;;18.47;17.57;;;18.60;99.90;;;;;;5093013;28;20778;-66
2021/07/23 01:01:33;;;;;;;19.30;18.30;;;18.60;99.90;;;;;;5092618;28;20473;-67
2021/07/23 01:04:02;;;;;;;19.70;18.50;;;18.50;99.90;;;;;;5093146;28;20485;-66
2021/07/23 01:06:30;;;;;;;20.03;18.87;;;18.30;99.90;;;;;;5093020;28;20461;-66
2021/07/23 01:08:56;;;;;;;19.30;18.30;;;18.30;99.90;;;;;;5092916;28;20849;-66
2021/07/23 01:11:25;;;;;;;19.60;18.50;;;18.20;99.90;;;;;;5092650;28;20940;-66
2021/07/23 01:13:52;;;;;;;20.23;18.63;;;18.30;99.90;;;;;;5092912;28;20439;-67
2021/07/23 01:16:18;;;;;;;19.33;18.10;;;18.30;99.90;;;;;;5092712;28;20481;-66
2021/07/23 01:18:45;;;;;;;19.30;17.97;;;18.10;99.90;;;;;;5092645;28;20442;-66
2021/07/23 01:21:14;;;;;;;18.63;17.63;;;18.10;99.90;;;;;;5093035;28;20446;-67
2021/07/23 01:23:42;;;;;;;19.63;18.53;;;18.20;99.90;;;;;;5092710;28;20453;-67
2021/07/23 01:26:09;;;;;;;18.10;17.03;;;18.30;99.90;;;;;;5092465;28;20477;-67
2021/07/23 01:28:38;;;;;;;18.07;17.17;;;18.30;99.90;;;;;;5092653;28;20434;-67
2021/07/23 01:31:04;;;;;;;18.20;17.20;;;18.40;99.90;;;;;;5091903;28;20469;-67
2021/07/23 01:33:32;;;;;;;19.50;18.40;;;18.30;99.90;;;;;;5092487;28;20445;-67
2021/07/23 01:35:59;;;;;;;17.63;16.70;;;18.20;99.90;;;;;;5092467;28;20969;-67
2021/07/23 01:38:28;;;;;;;19.27;17.93;;;18.10;99.90;;;;;;5092565;28;20489;-67
2021/07/23 01:40:57;;;;;;;18.73;17.57;;;18.10;99.90;;;;;;5092017;28;20442;-67
2021/07/23 01:43:25;;;;;;;18.03;16.93;;;18.00;99.90;;;;;;5092237;28;20434;-66
2021/07/23 01:45:53;;;;;;;18.60;17.70;;;17.90;99.90;;;;;;5092395;28;20466;-66
2021/07/23 01:48:20;;;;;;;19.17;18.10;;;17.80;99.90;;;;;;5092327;28;20470;-66
2021/07/23 01:50:47;;;;;;;19.23;18.07;;;17.60;99.90;;;;;;5091942;28;20470;-65
2021/07/23 01:53:13;;;;;;;18.90;17.90;;;17.60;99.90;;;;;;5091838;28;20442;-67
2021/07/23 01:55:42;;;;;;;18.20;17.30;;;17.50;99.90;;;;;;5091392;28;20450;-67
2021/07/23 01:58:10;;;;;;;18.00;17.13;;;17.60;99.90;;;;;;5092048;28;20482;-67
2021/07/23 02:00:37;;;;;;;19.33;18.33;;;17.50;99.90;;;;;;5090674;28;20449;-66
2021/07/23 02:03:04;;;;;;;19.07;18.03;;;17.40;99.90;;;;;;5091872;28;20462;-67
2021/07/23 02:05:31;;;;;;;19.03;17.60;;;17.30;99.90;;;;;;5091804;28;20446;-67
2021/07/23 02:07:58;;;;;;;18.90;18.00;;;17.30;99.90;;;;;;5092005;28;20517;-67
2021/07/23 02:10:25;;;;;;;18.77;17.77;;;17.30;99.90;;;;;;5091681;28;20446;-67
2021/07/23 02:12:52;;;;;;;19.50;18.30;;;17.30;99.90;;;;;;5091212;28;20446;-66
2021/07/23 02:15:20;;;;;;;18.33;17.13;;;17.20;99.90;;;;;;5090950;28;20438;-67
2021/07/23 02:17:47;;;;;;;19.30;18.10;;;17.30;99.90;;;;;;5091579;28;21007;-67
2021/07/23 02:20:14;;;;;;;18.87;17.87;;;17.20;99.90;;;;;;5091161;28;20817;-67
2021/07/23 02:22:41;;;;;;;19.93;18.83;;;17.20;99.90;;;;;;5090072;28;20457;-66
2021/07/23 02:25:08;;;;;;;19.10;17.90;;;17.00;99.90;;;;;;5090984;28;20465;-67
2021/07/23 02:27:35;;;;;;;19.90;18.40;;;16.90;99.90;;;;;;5091554;28;20466;-66
2021/07/23 02:30:02;;;;;;;19.23;17.90;;;16.80;99.90;;;;;;5091873;28;20876;-66
2021/07/23 02:32:30;;;;;;;18.27;17.27;;;16.70;99.90;;;;;;5091082;28;20471;-66
2021/07/23 02:34:56;;;;;;;19.63;18.33;;;16.90;99.90;;;;;;5092300;28;20437;-67
2021/07/23 02:37:23;;;;;;;18.53;17.50;;;16.80;99.90;;;;;;5091412;28;20485;-67
2021/07/23 02:39:50;;;;;;;17.60;16.70;;;16.70;99.90;;;;;;5091870;28;21036;-67
2021/07/23 02:42:16;;;;;;;18.50;17.40;;;16.80;99.90;;;;;;5092112;28;20451;-67
2021/07/23 02:44:43;;;;;;;18.47;17.50;;;16.80;99.90;;;;;;5095954;28;20449;-66
2021/07/23 02:47:10;;;;;;;18.77;17.83;;;16.70;99.90;;;;;;5095978;28;20987;-67
2021/07/23 02:49:38;;;;;;;19.50;18.27;;;16.70;99.90;;;;;;5095959;28;20921;-66
2021/07/23 02:52:05;;;;;;;18.87;17.73;;;16.70;99.90;;;;;;5095504;28;20442;-67
2021/07/23 02:54:31;;;;;;;18.90;17.90;;;16.70;99.90;;;;;;5095749;28;20948;-67
2021/07/23 02:56:58;;;;;;;18.43;17.20;;;16.60;99.90;;;;;;5095623;28;20828;-66
2021/07/23 02:59:25;;;;;;;19.03;17.93;;;16.60;99.90;;;;;;5095953;28;20540;-67
2021/07/23 03:01:51;;;;;;;19.70;18.50;;;16.50;99.90;;;;;;5095307;28;20450;-66
2021/07/23 03:04:18;;;;;;;18.90;17.80;;;16.50;99.90;;;;;;5095849;28;20499;-68
2021/07/23 03:06:46;;;;;;;19.50;18.10;;;16.40;99.90;;;;;;5095730;28;21011;-66
2021/07/23 03:09:13;;;;;;;19.70;18.10;;;16.30;99.90;;;;;;5095635;28;20821;-66
2021/07/23 03:11:39;;;;;;;19.03;17.90;;;16.10;99.90;;;;;;5095156;28;20454;-67
2021/07/23 03:14:06;;;;;;;19.37;18.27;;;16.10;99.90;;;;;;5095654;28;20445;-67
2021/07/23 03:16:33;;;;;;;20.50;19.03;;;16.00;99.90;;;;;;5095341;28;20462;-66
2021/07/23 03:18:59;;;;;;;19.40;18.13;;;16.00;99.90;;;;;;5094602;28;20941;-69
2021/07/23 03:21:26;;;;;;;18.70;17.50;;;16.00;99.90;;;;;;5094896;28;20437;-67
2021/07/23 03:23:55;;;;;;;19.40;18.30;;;15.90;99.90;;;;;;5095467;28;20445;-68
2021/07/23 03:26:22;;;;;;;19.90;18.50;;;15.80;99.90;;;;;;5095071;28;20974;-65
2021/07/23 03:28:48;;;;;;;19.30;18.20;;;15.80;99.90;;;;;;5095125;28;20442;-68
2021/07/23 03:31:15;;;;;;;19.17;18.17;;;15.80;99.90;;;;;;5094849;28;20537;-69
2021/07/23 03:33:42;;;;;;;20.40;19.20;;;15.90;99.90;;;;;;5095017;28;20782;-68
2021/07/23 03:36:09;;;;;;;20.07;18.77;;;15.90;99.90;;;;;;5095031;28;20469;-67
2021/07/23 03:38:36;;;;;;;20.73;19.33;;;15.90;99.90;;;;;;5094642;28;20474;-68
2021/07/23 03:41:04;;;;;;;19.93;18.87;;;16.00;99.90;;;;;;5094776;28;21006;-68
2021/07/23 03:43:31;;;;;;;20.60;19.50;;;15.90;99.90;;;;;;5094222;28;20442;-68
2021/07/23 03:45:59;;;;;;;20.73;19.50;;;15.80;99.90;;;;;;5094519;28;20473;-67
2021/07/23 03:48:25;;;;;;;20.80;19.30;;;15.80;99.90;;;;;;5094760;28;20445;-67
2021/07/23 03:50:52;;;;;;;20.10;19.00;;;15.70;99.90;;;;;;5094251;28;20451;-67
2021/07/23 03:53:19;;;;;;;20.20;19.10;;;15.70;99.90;;;;;;5094619;28;20818;-66
2021/07/23 03:55:45;;;;;;;20.37;19.00;;;15.60;99.90;;;;;;5094251;28;21114;-67
2021/07/23 03:58:13;;;;;;;19.73;18.63;;;15.70;99.90;;;;;;5094199;28;20478;-68
2021/07/23 04:00:40;;;;;;;20.50;19.30;;;15.60;99.90;;;;;;5092032;28;20442;-67
2021/07/23 04:03:07;;;;;;;21.03;19.83;;;15.60;99.90;;;;;;5093013;28;20843;-67
2021/07/23 04:05:33;;;;;;;19.77;18.63;;;15.60;99.90;;;;;;5092944;28;20461;-66
2021/07/23 04:08:00;;;;;;;19.93;18.83;;;15.60;99.90;;;;;;5093171;28;20439;-67
2021/07/23 04:10:26;;;;;;;19.87;18.63;;;15.60;99.90;;;;;;5093121;28;20442;-68
2021/07/23 04:12:53;;;;;;;19.40;18.27;;;15.60;99.90;;;;;;5092849;28;20438;-67
2021/07/23 04:15:22;;;;;;;20.27;18.87;;;15.60;99.90;;;;;;5092952;28;20446;-66
2021/07/23 04:17:48;;;;;;;21.03;19.87;;;15.60;99.90;;;;;;5092923;28;20478;-67
2021/07/23 04:20:15;;;;;;;19.10;17.67;;;15.50;99.90;;;;;;5092857;28;20447;-67
2021/07/23 04:22:42;;;;;;;21.67;20.13;;;15.60;99.90;;;;;;5092586;28;20442;-67
2021/07/23 04:25:10;;;;;;;20.03;18.80;;;15.50;99.90;;;;;;5093883;28;20445;-67
2021/07/23 04:27:37;;;;;;;19.60;18.50;;;15.50;99.90;;;;;;5093934;28;20457;-67
2021/07/23 04:30:04;;;;;;;19.43;18.40;;;15.60;99.90;;;;;;5094012;28;20434;-68
2021/07/23 04:32:32;;;;;;;20.17;18.87;;;15.60;99.90;;;;;;5093607;28;20443;-67
2021/07/23 04:34:59;;;;;;;20.67;19.47;;;15.60;99.90;;;;;;5093697;28;20442;-67
2021/07/23 04:37:25;;;;;;;19.97;18.87;;;15.60;99.90;;;;;;5093432;28;21011;-67
2021/07/23 04:39:52;;;;;;;20.53;18.97;;;15.70;99.90;;;;;;5093603;28;20453;-68
2021/07/23 04:42:18;;;;;;;22.33;20.43;;;15.70;99.90;;;;;;5093395;28;20451;-68
2021/07/23 04:44:45;;;;;;;20.30;19.00;;;15.70;99.90;;;;;;5093480;28;20468;-67
2021/07/23 04:47:12;;;;;;;20.63;19.23;;;15.80;99.90;;;;;;5093408;28;20466;-68
2021/07/23 04:49:40;;;;;;;20.63;19.33;;;15.80;99.90;;;;;;5093278;28;20449;-67
2021/07/23 04:52:07;;;;;;;22.63;21.13;;;15.90;99.90;;;;;;5093143;28;20442;-67
2021/07/23 04:54:33;;;;;;;22.73;21.10;;;15.90;99.90;;;;;;5093276;28;20442;-67
2021/07/23 04:57:00;;;;;;;20.13;18.73;;;16.00;99.90;;;;;;5093143;28;20878;-67
2021/07/23 04:59:27;;;;;;;20.67;19.40;;;16.10;99.90;;;;;;5093534;28;20515;-68
2021/07/23 05:01:53;;;;;;;21.53;20.07;;;16.10;99.90;;;;;;5092893;28;20746;-68
2021/07/23 05:04:20;;;;;;;21.50;20.10;;;16.10;99.90;;;;;;5093101;28;20445;-67
2021/07/23 05:06:48;;;;;;;21.83;20.33;;;16.10;99.90;;;;;;5092392;28;20458;-67
2021/07/23 05:09:15;;;;;;;20.90;19.47;;;16.10;99.90;;;;;;5093142;28;20438;-67
2021/07/23 05:11:43;;;;;;;20.93;19.47;;;16.20;99.90;;;;;;5092735;28;20450;-68
2021/07/23 05:14:09;;;;;;;23.13;21.20;;;16.20;99.90;;;;;;5092882;28;20442;-68
2021/07/23 05:16:37;;;;;;;20.53;19.43;;;16.30;99.90;;;;;;5092759;28;21052;-68
2021/07/23 05:19:05;;;;;;;20.40;19.20;;;16.30;99.90;;;;;;5092792;28;20477;-67
2021/07/23 05:21:32;;;;;;;22.13;20.53;;;16.40;99.90;;;;;;5092528;28;20805;-67
2021/07/23 05:24:03;;;;;;;21.43;19.97;;;16.40;99.90;;;;;;5092755;28;20443;-67
2021/07/23 05:26:31;;;;;;;22.77;21.27;;;16.50;99.90;;;;;;5092605;28;20509;-67
2021/07/23 05:28:58;;;;;;;21.10;19.80;;;16.50;99.90;;;;;;5092654;28;20454;-68
2021/07/23 05:31:25;;;;;;;22.43;21.03;;;16.50;99.90;;;;;;5092385;28;20817;-67
2021/07/23 05:33:52;;;;;;;22.00;20.63;;;16.50;99.90;;;;;;5092511;28;20476;-67
2021/07/23 05:36:18;;;;;;;21.13;19.77;;;16.60;99.90;;;;;;5092498;28;20469;-67
2021/07/23 05:38:45;;;;;;;21.77;20.00;;;16.70;99.90;;;;;;5092422;28;20485;-67
2021/07/23 05:41:13;;;;;;;22.33;20.73;;;16.80;99.90;;;;;;5092323;28;20446;-67
2021/07/23 05:43:40;;;;;;;23.73;22.17;;;16.80;99.90;;;;;;5092406;28;20442;-67
2021/07/23 05:46:07;;;;;;;21.30;20.10;;;16.90;99.90;;;;;;5092120;28;20529;-68
2021/07/23 05:48:35;;;;;;;22.90;21.03;;;17.00;99.90;;;;;;5092370;28;20461;-68
2021/07/23 05:51:03;;;;;;;20.97;19.70;;;17.00;99.90;;;;;;5091982;28;20461;-68
2021/07/23 05:53:30;;;;;;;23.87;22.37;;;17.10;99.90;;;;;;5092246;28;20944;-67
2021/07/23 05:55:58;;;;;;;22.40;21.03;;;17.10;99.90;;;;;;5092052;28;20470;-67
2021/07/23 05:58:26;;;;;;;22.87;21.47;;;17.20;99.90;;;;;;5091905;28;20481;-67
2021/07/23 06:00:53;;;;;;;22.33;21.03;;;17.20;99.90;;;;;;5091899;28;20438;-67
2021/07/23 06:03:20;;;;;;;23.30;21.80;;;17.20;99.90;;;;;;5091805;28;20857;-67
2021/07/23 06:05:46;;;;;;;22.80;21.37;;;17.30;99.90;;;;;;5091792;28;20511;-67
2021/07/23 06:08:13;;;;;;;22.00;20.50;;;17.30;99.90;;;;;;5091985;28;20461;-67
2021/07/23 06:10:40;;;;;;;21.93;20.50;;;17.40;99.90;;;;;;5092044;28;20450;-68
2021/07/23 06:13:06;;;;;;;21.83;20.33;;;17.50;99.90;;;;;;5091641;28;20849;-68
2021/07/23 06:15:35;;;;;;;21.63;20.33;;;17.50;99.90;;;;;;5091701;28;20470;-66
2021/07/23 06:18:02;;;;;;;21.97;20.40;;;17.50;99.90;;;;;;5090781;28;21000;-67
2021/07/23 06:20:29;;;;;;;22.50;21.20;;;17.60;99.90;;;;;;5091752;28;20450;-67
2021/07/23 06:22:56;;;;;;;22.87;21.00;;;17.80;99.90;;;;;;5091513;28;20442;-67
2021/07/23 06:25:23;;;;;;;24.13;22.10;;;17.80;99.90;;;;;;5091478;28;20446;-67
2021/07/23 06:27:49;;;;;;;24.60;22.70;;;17.90;99.90;;;;;;5091755;28;20441;-68
2021/07/23 06:30:16;;;;;;;22.90;21.57;;;18.00;99.90;;;;;;5091698;28;20445;-67
2021/07/23 06:32:45;;;;;;;23.80;21.70;;;18.10;99.90;;;;;;5091334;28;20445;-68
2021/07/23 06:35:11;;;;;;;22.07;20.77;;;18.10;99.90;;;;;;5091569;28;20446;-67
2021/07/23 06:37:38;;;;;;;22.30;20.90;;;18.20;99.90;;;;;;5091462;28;20445;-66
2021/07/23 06:40:06;;;;;;;21.60;20.40;;;18.30;99.90;;;;;;5091519;28;20466;-68
2021/07/23 06:42:35;;;;;;;22.37;20.87;;;18.30;99.90;;;;;;5091298;28;20449;-67
2021/07/23 06:45:02;;;;;;;22.70;21.20;;;18.40;99.90;;;;;;5091493;28;20458;-67
2021/07/23 06:47:28;;;;;;;21.93;20.63;;;18.50;99.90;;;;;;5091431;28;20466;-67
2021/07/23 06:49:56;;;;;;;22.27;20.87;;;18.50;99.90;;;;;;5091360;28;20929;-67
2021/07/23 06:52:24;;;;;;;20.80;19.50;;;18.60;99.90;;;;;;5091090;28;20817;-68
2021/07/23 06:54:50;;;;;;;21.43;20.13;;;18.70;99.90;;;;;;5091277;28;20929;-68
2021/07/23 06:57:17;;;;;;;21.67;20.37;;;18.80;99.90;;;;;;5091314;28;20462;-67
2021/07/23 06:59:44;;;;;;;21.57;20.17;;;18.90;99.90;;;;;;5091243;28;20477;-68
2021/07/23 07:02:11;;;;;;;21.63;20.43;;;19.00;99.90;;;;;;5091148;28;20549;-67
2021/07/23 07:04:38;;;;;;;21.87;20.27;;;19.00;99.90;;;;;;5091302;28;20442;-67
2021/07/23 07:07:08;;;;;;;21.30;19.93;;;19.10;99.90;;;;;;5091190;28;20462;-68
2021/07/23 07:09:36;;;;;;;21.40;19.93;;;19.30;99.90;;;;;;5091300;28;20446;-67
2021/07/23 07:12:03;;;;;;;21.73;20.50;;;19.30;99.90;;;;;;5090915;28;20537;-67
2021/07/23 07:14:30;;;;;;;22.47;21.00;;;19.40;99.90;;;;;;5091153;28;20446;-68
2021/07/23 07:16:56;;;;;;;21.17;19.93;;;19.60;99.90;;;;;;5091076;28;20821;-67
2021/07/23 07:19:23;;;;;;;21.17;19.87;;;19.70;99.90;;;;;;5091102;28;20474;-68
2021/07/23 07:21:50;;;;;;;22.77;21.30;;;19.70;99.90;;;;;;5090957;28;21064;-67
2021/07/23 07:24:19;;;;;;;21.07;19.80;;;19.80;99.90;;;;;;5091059;28;20443;-68
2021/07/23 07:26:48;;;;;;;21.00;19.80;;;19.90;99.90;;;;;;5090847;28;20474;-68
2021/07/23 07:29:15;;;;;;;21.20;19.63;;;20.00;99.90;;;;;;5092401;28;20435;-67
2021/07/23 07:31:43;;;;;;;22.23;20.67;;;20.20;99.90;;;;;;5094665;28;21063;-68
2021/07/23 07:34:10;;;;;;;20.60;19.40;;;20.10;99.90;;;;;;5094740;28;20533;-68
2021/07/23 07:36:36;;;;;;;20.37;19.20;;;20.20;99.90;;;;;;5094883;28;20467;-68
2021/07/23 07:39:04;;;;;;;19.33;18.40;;;20.30;99.90;;;;;;5094673;28;20482;-68
2021/07/23 07:41:32;;;;;;;21.13;19.60;;;20.40;99.90;;;;;;5094595;28;20439;-68
2021/07/23 07:43:59;;;;;;;20.33;19.13;;;20.50;99.90;;;;;;5094650;28;20446;-68
2021/07/23 07:46:26;;;;;;;21.53;20.33;;;20.50;99.90;;;;;;5094455;28;20464;-68
2021/07/23 07:48:53;;;;;;;21.50;19.90;;;20.60;99.90;;;;;;5094500;28;20439;-68
2021/07/23 07:51:20;;;;;;;20.67;19.53;;;20.50;99.90;;;;;;5094382;28;20446;-68
2021/07/23 07:53:47;;;;;;;21.40;19.90;;;20.60;99.90;;;;;;5094438;28;20445;-68
2021/07/23 07:56:14;;;;;;;21.23;19.93;;;20.70;99.90;;;;;;5094408;28;20810;-68
2021/07/23 07:58:42;;;;;;;20.30;18.90;;;20.80;99.90;;;;;;5094244;28;20478;-68
2021/07/23 08:01:11;;;;;;;19.87;18.80;;;20.90;99.90;;;;;;5094223;28;20453;-68
2021/07/23 08:03:38;;;;;;;21.17;19.80;;;21.00;99.90;;;;;;5094193;28;20487;-68
2021/07/23 08:06:06;;;;;;;20.47;19.27;;;21.10;99.90;;;;;;5094148;28;20462;-67
2021/07/23 08:08:33;;;;;;;20.73;19.67;;;21.20;99.90;;;;;;5094268;28;20447;-67
2021/07/23 08:11:00;;;;;;;20.30;19.33;;;21.20;99.90;;;;;;5094194;28;20952;-69
2021/07/23 08:13:27;;;;;;;21.37;20.07;;;21.30;99.90;;;;;;5093957;28;20442;-67
2021/07/23 08:15:56;;;;;;;21.10;19.80;;;21.30;99.90;;;;;;5094011;28;20829;-68
2021/07/23 08:18:23;;;;;;;21.60;20.27;;;21.40;99.90;;;;;;5093933;28;20478;-67
2021/07/23 08:20:51;;;;;;;20.13;18.93;;;21.50;99.90;;;;;;5094020;28;20442;-68
2021/07/23 08:23:19;;;;;;;19.70;18.73;;;21.60;99.90;;;;;;5093782;28;20821;-68
2021/07/23 08:25:46;;;;;;;20.40;19.30;;;21.80;99.90;;;;;;5093550;28;20462;-67
2021/07/23 08:28:13;;;;;;;20.07;18.97;;;22.00;99.90;;;;;;5093763;28;20450;-68
2021/07/23 08:30:40;;;;;;;21.37;20.17;;;22.10;99.90;;;;;;5093727;28;20813;-67
2021/07/23 08:33:08;;;;;;;20.93;19.73;;;22.20;99.90;;;;;;5093366;28;20450;-68
2021/07/23 08:35:36;;;;;;;21.47;20.10;;;22.20;99.90;;;;;;5118248;22;20493;-66
2021/07/23 08:38:04;;;;;;;21.77;20.27;;;22.20;99.90;;;;;;5081493;28;20443;-66
2021/07/23 08:40:31;;;;;;;20.93;19.53;;;22.20;99.90;;;;;;5072189;28;21055;-66
2021/07/23 08:42:58;;;;;;;21.87;20.67;;;22.10;99.90;;;;;;5073048;28;20447;-67
2021/07/23 08:45:25;;;;;;;21.37;20.07;;;22.10;99.90;;;;;;5073066;28;20471;-66
2021/07/23 08:47:52;;;;;;;21.07;19.87;;;22.10;99.90;;;;;;5073124;28;20440;-66
2021/07/23 08:50:20;;;;;;;20.87;19.63;;;21.90;99.90;;;;;;5073177;28;20442;-66
2021/07/23 08:52:48;;;;;;;22.50;21.10;;;21.90;99.90;;;;;;5072925;28;20946;-67
2021/07/23 08:55:16;;;;;;;18.80;18.00;;;22.10;99.90;;;;;;5072804;28;20489;-67
2021/07/23 08:57:44;;;;;;;20.33;19.30;;;22.30;99.90;;;;;;5072716;28;20813;-67
2021/07/23 09:00:13;;;;;;;19.57;18.67;;;22.40;99.80;;;;;;5072868;28;20509;-67
2021/07/23 09:02:56;;;;;;;21.40;20.17;;;22.60;99.60;;;;;;5072727;28;20450;-67
2021/07/23 09:05:27;;;;;;;21.83;20.60;;;22.70;99.70;;;;;;5072802;28;20868;-66
2021/07/23 09:07:54;;;;;;;23.10;21.60;;;22.80;99.30;;;;;;5072835;28;20447;-66
2021/07/23 09:10:25;;;;;;;21.60;20.40;;;22.60;98.00;;;;;;5072837;28;20565;-66
2021/07/23 09:12:54;;;;;;;20.80;19.70;;;22.60;97.80;;;;;;5072386;28;20802;-67
2021/07/23 09:15:24;;;;;;;22.13;20.87;;;22.70;98.10;;;;;;5072572;28;20471;-68
2021/07/23 09:17:52;;;;;;;21.60;20.50;;;22.70;97.90;;;;;;5072552;28;20439;-69
2021/07/23 09:20:25;;;;;;;22.00;20.90;;;22.60;97.80;;;;;;5072390;28;20514;-66
2021/07/23 09:22:54;;;;;;;22.50;21.20;;;22.70;97.80;;;;;;5072303;28;20466;-67
2021/07/23 09:25:42;;;;;;;22.17;21.07;;;22.70;97.90;;;;;;5072511;28;20486;-67
2021/07/23 09:28:21;;;;;;;21.10;20.00;;;22.90;97.20;;;;;;5072527;28;20443;-67
2021/07/23 09:30:48;;;;;;;21.00;19.90;;;23.20;96.70;;;;;;5072372;28;20450;-68
2021/07/23 09:33:22;;;;;;;22.07;20.87;;;23.30;96.90;;;;;;5071943;28;20454;-67
2021/07/23 09:35:55;;;;;;;22.27;21.03;;;23.30;96.30;;;;;;5072142;28;20817;-67
2021/07/23 09:38:23;;;;;;;22.03;20.43;;;23.50;96.30;;;;;;5072136;28;20439;-68
2021/07/23 09:40:50;;;;;;;23.13;21.83;;;23.50;96.10;;;;;;5071966;28;20476;-67
2021/07/23 09:43:31;;;;;;;21.60;20.50;;;23.60;96.30;;;;;;5071848;28;20534;-66
2021/07/23 09:46:26;;;;;;;21.53;20.50;;;23.50;94.80;;;;;;5071742;28;20459;-66
2021/07/23 09:48:54;;;;;;;21.47;20.27;;;23.60;94.90;;;;;;5072810;28;20517;-67
2021/07/23 09:51:24;;;;;;;23.77;21.70;;;23.40;94.60;;;;;;5090106;28;20533;-66
2021/07/23 09:53:51;;;;;;;20.20;19.10;;;23.40;94.60;;;;;;5091053;28;20450;-69
2021/07/23 09:56:19;;;;;;;20.23;19.23;;;23.50;95.50;;;;;;5091445;28;20466;-66
2021/07/23 09:58:49;;;;;;;21.17;19.97;;;23.70;95.40;;;;;;5091224;28;20454;-67
2021/07/23 10:01:23;;;;;;;23.33;21.77;;;24.00;95.00;;;;;;5091185;28;20451;-67
2021/07/23 10:03:53;;;;;;;23.23;21.93;;;23.80;93.40;;;;;;5091743;28;20507;-66
2021/07/23 10:06:26;;;;;;;21.30;20.10;;;23.70;93.50;;;;;;5090254;28;20470;-66
2021/07/23 10:08:56;;;;;;;21.63;20.53;;;23.80;95.20;;;;;;5086896;28;20454;-67
2021/07/23 10:11:23;;;;;;;22.73;21.53;;;24.00;95.50;;;;;;5091094;28;20446;-67
2021/07/23 10:13:53;;;;;;;22.97;21.63;;;24.10;94.50;;;;;;5091297;28;20458;-66
2021/07/23 10:16:21;;;;;;;25.13;23.43;;;24.20;94.30;;;;;;5091327;28;20489;-66
2021/07/23 10:18:48;;;;;;;22.53;21.33;;;24.40;95.40;;;;;;5091438;28;20453;-67
2021/07/23 10:21:15;;;;;;;24.30;22.80;;;24.50;94.30;;;;;;5090961;28;20944;-67
2021/07/23 10:23:45;;;;;;;23.23;21.83;;;24.70;94.70;;;;;;5091466;28;20953;-66
2021/07/23 10:26:13;;;;;;;24.30;22.80;;;24.70;93.20;;;;;;5090364;28;20458;-67
2021/07/23 10:28:58;;;;;;;23.27;21.77;;;24.70;93.50;;;;;;5091179;28;20460;-67
2021/07/23 10:31:43;;;;;;;22.23;21.00;;;24.80;94.00;;;;;;5090676;28;20945;-67
2021/07/23 10:34:10;;;;;;;21.17;20.13;;;24.90;90.90;;;;;;5090512;28;20943;-66
2021/07/23 10:36:41;;;;;;;21.20;20.10;;;25.00;90.80;;;;;;5091254;28;20466;-68
2021/07/23 10:39:19;;;;;;;22.53;21.00;;;25.20;90.40;;;;;;5091229;28;20538;-68
2021/07/23 10:42:31;;;;;;;22.63;21.43;;;25.20;90.10;;;;;;5090527;28;20446;-67
2021/07/23 10:44:58;;;;;;;21.80;20.60;;;25.00;86.00;;;;;;5091228;28;20470;-68
2021/07/23 10:47:36;;;;;;;21.53;20.43;;;25.10;85.80;;;;;;5091389;28;20489;-68
2021/07/23 10:50:03;;;;;;;20.63;19.37;;;25.30;86.00;;;;;;5091570;28;20491;-68
2021/07/23 10:52:35;;;;;;;20.87;19.67;;;25.50;82.40;;;;;;5091081;28;20956;-68
2021/07/23 10:55:19;;;;;;;21.23;20.13;;;25.80;83.10;;;;;;5091320;28;20741;-68
2021/07/23 10:58:07;;;;;;;22.90;21.80;;;26.10;78.90;;;;;;5091330;28;20892;-68
2021/07/23 11:00:45;;;;;;;23.73;22.40;;;26.40;77.90;;;;;;5091107;28;20565;-68
2021/07/23 11:03:58;;;;;;;22.27;21.07;;;26.50;72.90;;;;;;5091150;28;20499;-67
2021/07/23 11:06:28;;;;;;;23.70;22.40;;;26.40;72.30;;;;;;5095436;28;20521;-68
2021/07/23 11:08:56;;;;;;;22.47;21.27;;;26.30;69.60;;;;;;5095177;28;20449;-68
2021/07/23 11:11:26;;;;;;;23.07;21.87;;;26.20;66.80;;;;;;5094881;28;20453;-69
2021/07/23 11:13:53;;;;;;;23.60;22.30;;;26.20;67.60;;;;;;5095207;28;20446;-68
2021/07/23 11:16:26;;;;;;;25.33;23.83;;;26.60;68.80;;;;;;5095114;28;20755;-67
2021/07/23 11:18:54;;;;;;;21.30;20.30;;;26.60;67.80;;;;;;5095104;28;20450;-68
2021/07/23 11:21:22;;;;;;;22.97;21.77;;;26.70;67.80;;;;;;5094770;28;20992;-68
2021/07/23 11:23:49;;;;;;;21.50;20.60;;;27.10;67.00;;;;;;5094835;28;20814;-68
2021/07/23 11:26:24;;;;;;;23.10;21.80;;;27.40;66.60;;;;;;5094864;28;20462;-68
2021/07/23 11:28:55;;;;;;;22.73;21.53;;;27.80;63.70;;;;;;5094815;28;20452;-67
2021/07/23 11:31:29;;;;;;;23.03;21.93;;;28.40;64.50;;;;;;5094680;28;20470;-68
2021/07/23 11:33:56;;;;;;;23.90;22.70;;;28.80;58.70;;;;;;5094884;28;20928;-68
2021/07/23 11:36:37;;;;;;;25.33;23.87;;;29.20;57.80;;;;;;5094342;28;21003;-69
2021/07/23 11:39:06;;;;;;;23.73;22.57;;;29.90;56.00;;;;;;5094783;28;20751;-68
2021/07/23 11:41:32;;;;;;;24.80;23.60;;;30.90;54.30;;;;;;5094483;28;20433;-68
2021/07/23 11:44:08;;;;;;;24.20;23.07;;;31.60;50.10;;;;;;5094667;28;20821;-67
2021/07/23 11:46:36;;;;;;;25.58;24.02;;;33.20;48.30;;;;;;5094536;28;20305;-68
2021/07/23 11:49:02;;;;;;;25.45;23.95;;;34.70;42.80;;;;;;5094583;28;20199;-68
2021/07/23 11:51:42;;;;;;;25.52;23.70;;;36.20;38.70;;;;;;5094352;28;20206;-69
2021/07/23 11:54:09;;;;;;;24.67;23.58;;;39.10;35.80;;;;;;5094368;28;20203;-66
2021/07/23 11:56:36;;;;;;;25.10;24.00;;;39.40;33.20;;;;;;5094354;28;20226;-66
2021/07/23 11:59:04;;;;;;;23.10;22.10;;;41.20;31.60;;;;;;5094494;28;20223;-66
2021/07/23 12:01:36;;;;;;;24.50;23.27;;;43.00;29.50;;;;;;5094019;28;20694;-66
2021/07/23 12:04:03;;;;;;;23.48;22.52;;;42.80;27.80;;;;;;5094231;28;20203;-66
2021/07/23 12:06:30;;;;;;;23.75;22.85;;;43.10;27.50;;;;;;5094033;28;20564;-65
2021/07/23 12:08:59;;;;;;;23.42;22.42;;;42.90;27.40;;;;;;5094095;28;20635;-67
2021/07/23 12:11:28;;;;;;;24.17;23.15;;;43.30;27.10;;;;;;5093762;28;20207;-66
2021/07/23 12:13:55;;;;;;;24.88;23.88;;;45.00;26.40;;;;;;5093915;28;20211;-65
2021/07/23 12:16:21;;;;;;;24.20;23.30;;;45.30;25.30;;;;;;5092358;28;20574;-67
2021/07/23 12:18:57;;;;;;;23.90;22.90;;;45.60;24.30;;;;;;5093745;28;20229;-66
2021/07/23 12:21:25;;;;;;;24.35;23.35;;;46.40;24.30;;;;;;5093542;28;20319;-67
2021/07/23 12:23:57;;;;;;;23.58;22.55;;;46.60;23.80;;;;;;5093633;28;20623;-67
2021/07/23 12:26:29;;;;;;;23.88;22.98;;;46.40;22.90;;;;;;5093627;28;20278;-66
2021/07/23 12:28:57;;;;;;;24.40;23.30;;;44.90;23.40;;;;;;5093798;28;20200;-65
2021/07/23 12:31:24;;;;;;;25.02;23.88;;;46.40;23.70;;;;;;5093472;28;20196;-67
2021/07/23 12:34:07;;;;;;;24.90;23.70;;;47.40;22.70;;;;;;5093630;28;20204;-66